Time;durP1;ratioP1;P1;durP2;ratioP2;P2;SDS_P1;SDS_P2;PMS_P1;PMS_P2;Temp;Humidity;BMP_temperature;BMP_pressure;BME280_temperature;BME280_humidity;BME280_pressure;Samples;Min_cycle;Max_cycle;Signal;HPM_P1;HPM_P2
2023/08/11 00:01:21;;;;;;;22.50;20.98;;;17.60;99.90;;;;;;4985626;28;20489;-82
2023/08/11 00:03:47;;;;;;;20.92;19.23;;;17.50;99.90;;;;;;4990392;28;20049;-82
2023/08/11 00:06:16;;;;;;;24.48;22.77;;;17.50;99.90;;;;;;4989549;28;20054;-82
2023/08/11 00:08:42;;;;;;;21.52;19.85;;;17.40;99.90;;;;;;4989392;28;20046;-82
2023/08/11 00:11:08;;;;;;;21.52;19.92;;;17.30;99.90;;;;;;5005190;28;20034;-82
2023/08/11 00:13:35;;;;;;;18.92;17.45;;;17.20;99.90;;;;;;4988809;28;20042;-82
2023/08/11 00:16:04;;;;;;;22.05;20.52;;;17.10;99.90;;;;;;4979354;28;20050;-82
2023/08/11 00:18:30;;;;;;;18.73;17.17;;;17.00;99.90;;;;;;4969917;28;20402;-82
2023/08/11 00:20:57;;;;;;;22.52;20.83;;;16.90;99.90;;;;;;4969297;28;20078;-81
2023/08/11 00:23:24;;;;;;;22.90;21.23;;;16.80;99.90;;;;;;4969919;28;20105;-82
2023/08/11 00:25:50;;;;;;;21.10;19.63;;;16.70;99.90;;;;;;4968975;28;20703;-82
2023/08/11 00:28:16;;;;;;;22.73;20.95;;;16.70;99.90;;;;;;4970496;28;20078;-81
2023/08/11 00:30:42;;;;;;;17.70;15.93;;;16.60;99.90;;;;;;4979012;28;20046;-81
2023/08/11 00:33:07;;;;;;;21.80;20.17;;;16.50;99.90;;;;;;4990235;28;20085;-81
2023/08/11 00:35:33;;;;;;;36.58;34.08;;;16.40;99.90;;;;;;4988621;28;20441;-82
2023/08/11 00:37:59;;;;;;;19.95;18.25;;;16.40;99.90;;;;;;4988634;28;20042;-81
2023/08/11 00:40:24;;;;;;;19.58;18.00;;;16.30;99.90;;;;;;4989178;28;20038;-82
2023/08/11 00:42:50;;;;;;;18.65;17.30;;;16.20;99.90;;;;;;4988582;28;20042;-81
2023/08/11 00:45:16;;;;;;;18.58;17.02;;;16.20;99.90;;;;;;4985085;28;20108;-82
2023/08/11 00:47:43;;;;;;;24.58;22.88;;;16.10;99.90;;;;;;4969137;28;20125;-82
2023/08/11 00:50:10;;;;;;;24.48;22.48;;;16.00;99.90;;;;;;4969163;28;20047;-82
2023/08/11 00:52:37;;;;;;;20.77;19.17;;;16.00;99.90;;;;;;4968898;28;20050;-82
2023/08/11 00:55:03;;;;;;;25.20;23.17;;;15.90;99.90;;;;;;4969890;28;20072;-81
2023/08/11 00:57:29;;;;;;;18.95;17.35;;;15.90;99.90;;;;;;4968727;28;20047;-82
2023/08/11 00:59:56;;;;;;;47.42;44.03;;;15.90;99.90;;;;;;4968783;28;20062;-82
2023/08/11 01:02:21;;;;;;;45.83;42.88;;;15.80;99.90;;;;;;4970402;28;20039;-81
2023/08/11 01:04:48;;;;;;;30.42;28.25;;;15.70;99.90;;;;;;4970096;28;20451;-82
2023/08/11 01:07:21;;;;;;;53.38;50.03;;;15.70;99.90;;;;;;4970209;28;20047;-81
2023/08/11 01:09:58;;;;;;;75.25;70.72;;;15.60;99.90;;;;;;4968275;28;20082;-81
2023/08/11 01:12:32;;;;;;;59.42;55.55;;;15.60;99.90;;;;;;4968681;28;20050;-82
2023/08/11 01:15:10;;;;;;;69.13;64.72;;;15.60;99.90;;;;;;4970496;28;20437;-81
2023/08/11 01:17:38;;;;;;;39.63;37.03;;;15.50;99.90;;;;;;4968930;28;20050;-81
2023/08/11 01:20:10;;;;;;;68.03;63.78;;;15.50;99.90;;;;;;4968586;28;20087;-82
2023/08/11 01:22:38;;;;;;;63.03;58.97;;;15.50;99.90;;;;;;4969904;28;20405;-81
2023/08/11 01:25:06;;;;;;;60.35;56.45;;;15.40;99.90;;;;;;4969854;28;20527;-81
2023/08/11 01:27:36;;;;;;;88.22;82.82;;;15.40;99.90;;;;;;4970104;28;20043;-80
2023/08/11 01:30:05;;;;;;;50.97;47.47;;;15.40;99.90;;;;;;4968871;28;20092;-82
2023/08/11 01:32:31;;;;;;;56.45;52.85;;;15.40;99.90;;;;;;4985348;28;20046;-82
2023/08/11 01:34:57;;;;;;;54.47;50.75;;;15.30;99.90;;;;;;5004297;28;20051;-81
2023/08/11 01:37:23;;;;;;;81.40;76.43;;;15.30;99.90;;;;;;4987456;28;20050;-81
2023/08/11 01:39:48;;;;;;;92.38;86.68;;;15.20;99.90;;;;;;4991398;28;20042;-81
2023/08/11 01:42:15;;;;;;;68.63;64.18;;;15.20;99.90;;;;;;4991659;28;20070;-81
2023/08/11 01:44:41;;;;;;;83.60;78.13;;;15.20;99.90;;;;;;4973817;28;20125;-82
2023/08/11 01:47:09;;;;;;;81.25;76.38;;;15.20;99.90;;;;;;4975362;28;20047;-81
2023/08/11 01:49:35;;;;;;;85.95;80.38;;;15.20;99.90;;;;;;4992816;28;20125;-81
2023/08/11 01:52:03;;;;;;;59.25;55.28;;;15.10;99.90;;;;;;4992167;28;20473;-82
2023/08/11 01:54:29;;;;;;;79.88;74.82;;;15.10;99.90;;;;;;4992772;28;20401;-82
2023/08/11 01:56:56;;;;;;;98.40;92.22;;;15.10;99.90;;;;;;4991313;28;20042;-81
2023/08/11 01:59:22;;;;;;;93.53;87.47;;;15.10;99.90;;;;;;4991008;28;20481;-81
2023/08/11 02:01:48;;;;;;;77.78;72.72;;;15.00;99.90;;;;;;4991265;28;20045;-82
2023/08/11 02:04:13;;;;;;;98.00;91.68;;;15.00;99.90;;;;;;4992621;28;20034;-82
2023/08/11 02:06:39;;;;;;;76.80;71.60;;;15.00;99.90;;;;;;4990703;28;20038;-82
2023/08/11 02:09:08;;;;;;;90.72;84.30;;;15.00;99.90;;;;;;4974773;28;20042;-82
2023/08/11 02:11:37;;;;;;;99.60;93.07;;;15.00;99.90;;;;;;4992472;28;20053;-81
2023/08/11 02:14:04;;;;;;;90.47;84.65;;;15.00;99.90;;;;;;4982256;28;20047;-81
2023/08/11 02:16:30;;;;;;;78.40;73.18;;;14.90;99.90;;;;;;4971825;28;20433;-81
2023/08/11 02:18:55;;;;;;;98.72;92.38;;;14.90;99.90;;;;;;4955316;28;20512;-81
2023/08/11 02:21:21;;;;;;;116.20;108.88;;;14.90;99.90;;;;;;4970892;28;20094;-81
2023/08/11 02:23:47;;;;;;;88.47;82.68;;;14.90;99.90;;;;;;4972903;28;20401;-82
2023/08/11 02:26:14;;;;;;;71.70;67.07;;;14.90;99.90;;;;;;4971562;28;20130;-82
2023/08/11 02:28:40;;;;;;;75.95;70.75;;;14.90;99.90;;;;;;4971323;28;20053;-81
2023/08/11 02:31:08;;;;;;;100.40;93.78;;;15.00;99.90;;;;;;4972644;28;20398;-81
2023/08/11 02:33:34;;;;;;;82.30;76.88;;;14.90;99.90;;;;;;4971087;28;20053;-82
2023/08/11 02:36:00;;;;;;;101.60;94.97;;;14.90;99.90;;;;;;4971979;28;20486;-81
2023/08/11 02:38:26;;;;;;;108.38;101.35;;;14.80;99.90;;;;;;4971170;28;20039;-81
2023/08/11 02:40:51;;;;;;;87.47;81.78;;;14.90;99.90;;;;;;4972757;28;20035;-81
2023/08/11 02:43:17;;;;;;;102.50;95.15;;;14.80;99.90;;;;;;4977040;28;20493;-81
2023/08/11 02:45:43;;;;;;;72.75;67.43;;;14.80;99.90;;;;;;4991661;28;20078;-81
2023/08/11 02:48:08;;;;;;;78.95;73.82;;;14.80;99.90;;;;;;4992198;28;20046;-81
2023/08/11 02:50:34;;;;;;;99.75;92.85;;;15.10;99.90;;;;;;4990322;28;20035;-81
2023/08/11 02:53:00;;;;;;;101.97;95.20;;;14.80;99.90;;;;;;4991950;28;20035;-81
2023/08/11 02:55:25;;;;;;;102.47;95.60;;;14.80;99.90;;;;;;4990298;28;20097;-82
2023/08/11 02:57:51;;;;;;;89.45;83.53;;;14.80;99.90;;;;;;4991387;28;20034;-81
2023/08/11 03:00:17;;;;;;;106.07;98.80;;;14.80;99.90;;;;;;4991434;28;20248;-81
2023/08/11 03:02:47;;;;;;;86.85;81.18;;;14.70;99.90;;;;;;4990467;28;20123;-81
2023/08/11 03:05:14;;;;;;;79.45;73.80;;;14.70;99.90;;;;;;4989783;28;20052;-81
2023/08/11 03:07:41;;;;;;;90.18;84.25;;;14.70;99.90;;;;;;4991216;28;20066;-81
2023/08/11 03:10:09;;;;;;;97.32;91.20;;;14.70;99.90;;;;;;4990012;28;20038;-81
2023/08/11 03:12:35;;;;;;;102.30;95.80;;;14.70;99.90;;;;;;4986269;28;20077;-81
2023/08/11 03:15:05;;;;;;;92.80;86.85;;;14.70;99.90;;;;;;4970215;28;20097;-81
2023/08/11 03:17:32;;;;;;;108.80;101.93;;;14.70;99.90;;;;;;4970559;28;20406;-80
2023/08/11 03:19:58;;;;;;;98.45;92.10;;;14.30;99.90;;;;;;4969611;28;20142;-81
2023/08/11 03:22:23;;;;;;;121.72;113.70;;;14.70;99.90;;;;;;4971649;28;20501;-81
2023/08/11 03:24:49;;;;;;;105.85;98.75;;;14.60;99.90;;;;;;4970213;28;20097;-81
2023/08/11 03:27:15;;;;;;;84.32;78.88;;;14.70;99.90;;;;;;4971679;28;20038;-81
2023/08/11 03:29:41;;;;;;;77.72;72.40;;;14.60;99.90;;;;;;4971519;28;20422;-82
2023/08/11 03:32:07;;;;;;;79.30;74.28;;;14.60;99.90;;;;;;4970035;28;20035;-81
2023/08/11 03:34:32;;;;;;;95.20;89.18;;;14.60;99.90;;;;;;4970032;28;20043;-81
2023/08/11 03:36:58;;;;;;;95.60;89.55;;;14.70;99.90;;;;;;4970093;28;20508;-81
2023/08/11 03:39:24;;;;;;;96.72;90.38;;;14.60;99.90;;;;;;4970128;28;20457;-81
2023/08/11 03:41:52;;;;;;;93.95;88.22;;;14.60;99.90;;;;;;4972482;28;20101;-81
2023/08/11 03:44:18;;;;;;;80.03;74.97;;;14.60;99.90;;;;;;4990525;28;20070;-81
2023/08/11 03:46:43;;;;;;;80.97;75.53;;;14.60;99.90;;;;;;4989454;28;20132;-82
2023/08/11 03:49:09;;;;;;;83.82;78.53;;;14.60;99.90;;;;;;4988861;28;20501;-81
2023/08/11 03:51:35;;;;;;;72.03;67.03;;;14.60;99.90;;;;;;4990602;28;20042;-81
2023/08/11 03:54:03;;;;;;;99.28;92.72;;;14.60;99.90;;;;;;4988919;28;20089;-81
2023/08/11 03:56:30;;;;;;;89.72;83.80;;;14.70;99.90;;;;;;4990086;28;20250;-82
2023/08/11 03:58:56;;;;;;;108.35;101.57;;;14.60;99.90;;;;;;4991515;28;20046;-81
2023/08/11 04:01:22;;;;;;;93.20;86.75;;;14.60;99.90;;;;;;4991376;28;20138;-81
2023/08/11 04:03:48;;;;;;;75.93;70.68;;;14.60;99.90;;;;;;4991647;28;20063;-81
2023/08/11 04:06:15;;;;;;;90.53;84.50;;;14.60;99.90;;;;;;4973303;28;20051;-82
2023/08/11 04:08:41;;;;;;;93.78;87.68;;;14.60;99.90;;;;;;4970545;28;20386;-81
2023/08/11 04:11:07;;;;;;;68.95;64.22;;;14.60;99.90;;;;;;4988195;28;20061;-81
2023/08/11 04:13:33;;;;;;;107.20;100.30;;;14.60;99.90;;;;;;5007395;28;20034;-80
2023/08/11 04:15:59;;;;;;;93.00;86.63;;;14.60;99.90;;;;;;5008244;28;20104;-81
2023/08/11 04:18:25;;;;;;;74.15;69.13;;;14.60;99.90;;;;;;5008057;28;20385;-81
2023/08/11 04:20:52;;;;;;;90.70;84.90;;;14.60;99.90;;;;;;4991648;28;20412;-81
2023/08/11 04:23:17;;;;;;;69.00;64.50;;;14.40;99.90;;;;;;5007990;28;20045;-81
2023/08/11 04:25:43;;;;;;;96.35;89.90;;;14.60;99.90;;;;;;5009493;28;20183;-81
2023/08/11 04:28:09;;;;;;;98.78;92.30;;;14.70;99.90;;;;;;4996363;28;20129;-81
2023/08/11 04:30:35;;;;;;;86.40;80.75;;;14.70;99.90;;;;;;4990170;28;20038;-81
2023/08/11 04:33:01;;;;;;;105.60;98.82;;;14.70;99.90;;;;;;4988002;28;20108;-81
2023/08/11 04:35:27;;;;;;;88.28;82.40;;;14.70;99.90;;;;;;4988270;28;20089;-81
2023/08/11 04:37:53;;;;;;;112.88;105.72;;;14.80;99.90;;;;;;4989917;28;20081;-81
2023/08/11 04:40:19;;;;;;;104.85;98.18;;;14.80;99.90;;;;;;4989571;28;20502;-81
2023/08/11 04:42:44;;;;;;;104.28;97.63;;;14.80;99.90;;;;;;4977927;28;20129;-81
2023/08/11 04:45:10;;;;;;;105.45;98.78;;;14.90;99.90;;;;;;4970363;28;20100;-81
2023/08/11 04:47:36;;;;;;;98.05;91.90;;;14.90;99.90;;;;;;4969550;28;20034;-81
2023/08/11 04:50:03;;;;;;;104.32;97.82;;;14.90;99.90;;;;;;4968985;28;20039;-81
2023/08/11 04:52:28;;;;;;;88.63;82.88;;;14.90;99.90;;;;;;4968848;28;20105;-81
2023/08/11 04:54:54;;;;;;;66.78;62.28;;;15.00;99.90;;;;;;4968850;28;20038;-81
2023/08/11 04:57:20;;;;;;;88.30;82.72;;;15.00;99.90;;;;;;4969054;28;20065;-80
2023/08/11 04:59:46;;;;;;;90.53;84.68;;;15.10;99.90;;;;;;4987640;28;20604;-81
2023/08/11 05:02:15;;;;;;;61.20;56.92;;;15.10;99.90;;;;;;4989037;28;20045;-81
2023/08/11 05:04:40;;;;;;;61.05;56.95;;;15.10;99.90;;;;;;4989578;28;20129;-80
2023/08/11 05:07:06;;;;;;;80.10;74.78;;;15.30;99.90;;;;;;4988608;28;20121;-81
2023/08/11 05:09:35;;;;;;;55.47;51.50;;;15.20;99.90;;;;;;4989481;28;20045;-81
2023/08/11 05:12:01;;;;;;;57.13;53.35;;;15.30;99.90;;;;;;4987998;28;20528;-82
2023/08/11 05:14:27;;;;;;;61.50;57.30;;;15.30;99.90;;;;;;4990707;28;20093;-81
2023/08/11 05:16:52;;;;;;;73.30;68.43;;;15.40;99.90;;;;;;4993178;28;20068;-81
2023/08/11 05:19:18;;;;;;;47.63;44.17;;;15.40;99.90;;;;;;4975700;28;20058;-81
2023/08/11 05:21:44;;;;;;;53.70;50.03;;;15.50;99.90;;;;;;4993314;28;20042;-81
2023/08/11 05:24:12;;;;;;;45.80;42.53;;;15.60;99.90;;;;;;4975647;28;20512;-82
2023/08/11 05:26:38;;;;;;;43.83;40.72;;;15.60;99.90;;;;;;4994510;28;20053;-81
2023/08/11 05:29:04;;;;;;;36.67;33.83;;;15.70;99.90;;;;;;4978299;28;20378;-81
2023/08/11 05:31:30;;;;;;;40.25;37.17;;;15.80;99.90;;;;;;4973306;28;20505;-81
2023/08/11 05:33:56;;;;;;;32.65;30.17;;;15.80;99.90;;;;;;4972657;28;20050;-81
2023/08/11 05:36:22;;;;;;;37.25;34.63;;;15.90;99.90;;;;;;4972564;28;20043;-81
2023/08/11 05:38:47;;;;;;;35.25;32.60;;;16.00;99.90;;;;;;4973769;28;20030;-82
2023/08/11 05:41:13;;;;;;;27.00;24.73;;;16.10;99.90;;;;;;4972800;28;20486;-81
2023/08/11 05:43:39;;;;;;;29.33;26.73;;;16.20;99.90;;;;;;4972034;28;20046;-81
2023/08/11 05:46:07;;;;;;;25.73;23.25;;;16.40;99.90;;;;;;4971517;28;20047;-81
2023/08/11 05:48:36;;;;;;;24.67;22.27;;;16.60;99.90;;;;;;4971929;28;20053;-81
2023/08/11 05:51:02;;;;;;;23.00;20.83;;;17.70;99.90;;;;;;4971543;28;20134;-81
2023/08/11 05:53:28;;;;;;;23.90;22.10;;;19.00;99.90;;;;;;4972720;28;20089;-82
2023/08/11 05:55:54;;;;;;;40.63;37.70;;;20.20;99.90;;;;;;4971467;28;20576;-82
2023/08/11 05:58:20;;;;;;;41.55;38.83;;;21.20;99.90;;;;;;4984173;28;20081;-82
2023/08/11 06:00:47;;;;;;;15.07;13.70;;;22.10;99.90;;;;;;4990912;28;20073;-81
2023/08/11 06:03:12;;;;;;;19.17;17.73;;;22.90;99.90;;;;;;4991229;28;20105;-82
2023/08/11 06:05:38;;;;;;;12.10;10.82;;;23.50;99.90;;;;;;4990870;28;20042;-82
2023/08/11 06:08:04;;;;;;;13.48;12.18;;;23.90;99.90;;;;;;4992133;28;20551;-82
2023/08/11 06:10:30;;;;;;;17.75;16.13;;;24.40;99.90;;;;;;4992256;28;20504;-82
2023/08/11 06:12:56;;;;;;;38.03;35.33;;;24.90;99.90;;;;;;4991787;28;20097;-82
2023/08/11 06:15:22;;;;;;;73.50;69.15;;;25.30;99.90;;;;;;4992247;28;20043;-82
2023/08/11 06:17:50;;;;;;;86.55;81.13;;;25.70;99.90;;;;;;4991080;28;20037;-82
2023/08/11 06:20:19;;;;;;;130.75;123.35;;;26.10;99.90;;;;;;4991919;28;20067;-82
2023/08/11 06:22:45;;;;;;;279.92;262.75;;;26.40;99.90;;;;;;4990621;28;20408;-82
2023/08/11 06:25:11;;;;;;;1665.68;999.90;;;26.50;99.90;;;;;;4990621;28;20042;-83
2023/08/11 06:27:37;;;;;;;1999.90;999.90;;;26.80;99.90;;;;;;4980749;28;20035;-82
2023/08/11 06:30:05;;;;;;;1999.90;999.90;;;26.90;99.90;;;;;;4971408;28;20047;-82
2023/08/11 06:32:31;;;;;;;1999.90;999.90;;;27.10;99.90;;;;;;4970753;28;20050;-82
2023/08/11 06:34:56;;;;;;;1999.90;999.90;;;27.30;99.90;;;;;;4954504;28;20041;-82
2023/08/11 06:37:22;;;;;;;1999.90;999.90;;;27.20;99.90;;;;;;4972204;28;20043;-82
2023/08/11 06:39:48;;;;;;;1999.90;999.90;;;27.50;99.90;;;;;;4971956;28;20034;-82
2023/08/11 06:42:14;;;;;;;1999.90;999.90;;;27.80;99.90;;;;;;4971411;28;20038;-83
2023/08/11 06:44:39;;;;;;;1999.90;926.58;;;28.10;98.90;;;;;;4970639;28;20043;-82
2023/08/11 06:47:05;;;;;;;1999.90;608.33;;;28.40;99.90;;;;;;4970390;28;20085;-82
2023/08/11 06:49:31;;;;;;;1999.90;956.85;;;28.30;99.90;;;;;;4970570;28;20101;-82
2023/08/11 06:51:56;;;;;;;1874.43;434.98;;;28.50;99.90;;;;;;4972230;28;20390;-83
2023/08/11 06:54:22;;;;;;;1999.90;528.22;;;28.50;99.30;;;;;;4985483;28;20050;-82
2023/08/11 06:56:48;;;;;;;1752.65;421.55;;;28.90;99.70;;;;;;4991506;28;20030;-82
2023/08/11 06:59:13;;;;;;;1999.90;564.70;;;28.50;99.40;;;;;;4990719;28;20141;-82
2023/08/11 07:01:39;;;;;;;1999.90;627.65;;;27.80;99.90;;;;;;4990574;28;20042;-82
2023/08/11 07:04:05;;;;;;;1999.90;999.90;;;27.30;99.80;;;;;;4991589;28;20042;-82
2023/08/11 07:06:31;;;;;;;1999.90;804.17;;;26.80;99.90;;;;;;4991661;28;20180;-82
2023/08/11 07:08:56;;;;;;;1468.90;330.60;;;26.20;99.90;;;;;;4990090;28;20370;-82
2023/08/11 07:11:22;;;;;;;1999.90;710.25;;;25.80;99.90;;;;;;4973858;28;20050;-83
2023/08/11 07:13:47;;;;;;;1999.90;670.58;;;25.60;99.90;;;;;;4991366;28;20132;-82
2023/08/11 07:16:13;;;;;;;1999.90;739.67;;;25.80;99.90;;;;;;4991478;28;20065;-83
2023/08/11 07:18:39;;;;;;;1999.90;751.15;;;26.50;99.90;;;;;;4990365;28;20318;-83
2023/08/11 07:21:04;;;;;;;1846.57;458.10;;;27.00;99.90;;;;;;4990194;28;20093;-83
2023/08/11 07:23:30;;;;;;;1999.90;622.60;;;27.10;99.90;;;;;;4979870;28;20050;-83
2023/08/11 07:25:56;;;;;;;1873.07;451.45;;;27.70;99.90;;;;;;4971512;28;20047;-82
2023/08/11 07:28:21;;;;;;;1999.90;999.90;;;27.80;99.90;;;;;;4971801;28;20078;-83
2023/08/11 07:30:47;;;;;;;1761.65;805.00;;;28.10;99.90;;;;;;4953940;28;20070;-83
2023/08/11 07:33:13;;;;;;;1999.90;999.90;;;28.40;99.90;;;;;;4971486;28;20129;-83
2023/08/11 07:35:38;;;;;;;1999.90;999.90;;;28.70;99.40;;;;;;4970938;28;20050;-83
2023/08/11 07:38:05;;;;;;;1999.90;999.90;;;28.50;99.20;;;;;;4970331;28;20046;-82
2023/08/11 07:40:31;;;;;;;1999.90;999.90;;;29.20;99.50;;;;;;4971150;28;20049;-82
2023/08/11 07:42:58;;;;;;;1999.90;999.90;;;29.60;99.00;;;;;;4970019;28;20043;-83
2023/08/11 07:45:24;;;;;;;1999.90;999.90;;;29.80;98.90;;;;;;4971388;28;20043;-83
2023/08/11 07:47:49;;;;;;;1999.90;999.90;;;30.20;98.70;;;;;;4970283;28;20465;-83
2023/08/11 07:50:15;;;;;;;1999.90;999.90;;;30.50;98.00;;;;;;4971412;28;20046;-82
2023/08/11 07:52:41;;;;;;;1999.90;999.90;;;30.50;97.80;;;;;;4971438;28;20043;-83
2023/08/11 07:55:07;;;;;;;1999.90;999.90;;;30.40;97.20;;;;;;4971037;28;20516;-83
2023/08/11 07:57:32;;;;;;;1999.90;999.90;;;30.40;97.80;;;;;;4970867;28;20054;-82
2023/08/11 07:59:58;;;;;;;1999.90;999.90;;;30.20;97.40;;;;;;4970087;28;20035;-82
2023/08/11 08:02:26;;;;;;;1999.90;999.90;;;30.60;97.10;;;;;;4969693;28;20442;-83
2023/08/11 08:04:52;;;;;;;1999.90;999.90;;;30.40;97.00;;;;;;4970127;28;20117;-83
2023/08/11 08:07:17;;;;;;;1999.90;999.90;;;30.40;97.30;;;;;;4972122;28;20181;-83
2023/08/11 08:09:43;;;;;;;1999.90;999.90;;;30.30;97.20;;;;;;4969995;28;20050;-83
2023/08/11 08:12:09;;;;;;;1999.90;999.90;;;30.20;97.10;;;;;;4970236;28;20041;-82
2023/08/11 08:14:34;;;;;;;1999.90;999.90;;;30.50;97.10;;;;;;4969095;28;20716;-82
2023/08/11 08:17:01;;;;;;;1999.90;999.90;;;30.50;97.20;;;;;;4969383;28;20118;-83
2023/08/11 08:19:27;;;;;;;1999.90;999.90;;;30.70;97.10;;;;;;4969658;28;20055;-83
2023/08/11 08:21:53;;;;;;;1999.90;999.90;;;30.40;97.20;;;;;;4969572;28;20481;-83
2023/08/11 08:24:19;;;;;;;1999.90;999.90;;;30.20;96.80;;;;;;4968881;28;20035;-83
2023/08/11 08:26:47;;;;;;;1999.90;999.90;;;30.40;97.10;;;;;;4969460;28;20042;-83
2023/08/11 08:29:14;;;;;;;1999.90;999.90;;;30.40;97.00;;;;;;4970630;28;20413;-82
2023/08/11 08:31:40;;;;;;;1999.90;999.90;;;30.40;97.00;;;;;;4970756;28;20050;-83
2023/08/11 08:34:06;;;;;;;1999.90;999.90;;;30.40;97.00;;;;;;4953236;28;20047;-82
2023/08/11 08:36:31;;;;;;;1999.90;999.90;;;30.00;97.50;;;;;;4969533;28;20391;-82
2023/08/11 08:38:57;;;;;;;1999.90;999.90;;;30.00;97.50;;;;;;4969137;28;20105;-83
2023/08/11 08:41:28;;;;;;;1999.90;999.90;;;30.00;97.40;;;;;;4982440;28;20436;-83
2023/08/11 08:43:59;;;;;;;1999.90;999.90;;;29.70;97.20;;;;;;4991175;28;20078;-82
2023/08/11 08:46:30;;;;;;;1999.90;999.90;;;29.40;97.60;;;;;;4985738;28;20053;-83
2023/08/11 08:49:13;;;;;;;1999.90;999.90;;;29.00;98.30;;;;;;4989023;28;20046;-83
2023/08/11 08:51:39;;;;;;;1999.90;999.90;;;28.90;97.60;;;;;;4990649;28;20096;-82
2023/08/11 08:54:08;;;;;;;1999.90;999.90;;;28.60;98.30;;;;;;4989585;28;20046;-82
2023/08/11 08:56:37;;;;;;;1999.90;999.90;;;28.40;98.80;;;;;;4974062;28;20039;-82
2023/08/11 08:59:03;;;;;;;1999.90;999.90;;;28.20;99.00;;;;;;4969314;28;20089;-83
2023/08/11 09:01:29;;;;;;;1999.90;999.90;;;28.00;99.30;;;;;;4968494;28;20038;-82
2023/08/11 09:03:56;;;;;;;1999.90;999.90;;;27.90;99.10;;;;;;4968483;28;20047;-82
2023/08/11 09:06:22;;;;;;;1999.90;999.90;;;27.80;99.30;;;;;;4952237;28;20090;-82
2023/08/11 09:08:48;;;;;;;1999.90;999.90;;;27.80;99.20;;;;;;4969478;28;20505;-83
2023/08/11 09:11:14;;;;;;;1999.90;999.90;;;27.80;99.20;;;;;;4982826;28;20077;-83
2023/08/11 09:13:42;;;;;;;1999.90;999.90;;;28.00;99.60;;;;;;4989503;28;20102;-83
2023/08/11 09:16:08;;;;;;;1999.90;999.90;;;28.10;98.80;;;;;;4988952;28;20393;-83
2023/08/11 09:18:34;;;;;;;1999.90;999.90;;;28.60;99.80;;;;;;4988714;28;20043;-83
2023/08/11 09:21:02;;;;;;;1999.90;999.90;;;29.00;98.90;;;;;;4989422;28;20051;-83
2023/08/11 09:23:28;;;;;;;1999.90;999.90;;;29.40;98.10;;;;;;4971670;28;20034;-83
2023/08/11 09:25:55;;;;;;;1999.90;999.90;;;29.60;97.90;;;;;;4987030;28;20537;-83
2023/08/11 09:28:21;;;;;;;1999.90;999.90;;;29.70;97.50;;;;;;4988598;28;20078;-82
2023/08/11 09:30:48;;;;;;;1999.90;999.90;;;30.00;97.90;;;;;;4988277;28;20042;-83
2023/08/11 09:33:14;;;;;;;1999.90;999.90;;;30.20;97.90;;;;;;4987871;28;20057;-82
2023/08/11 09:35:41;;;;;;;1999.90;999.90;;;30.40;97.10;;;;;;4988488;28;20117;-82
2023/08/11 09:38:08;;;;;;;1999.90;999.90;;;30.60;97.70;;;;;;4987418;28;20093;-83
2023/08/11 09:40:33;;;;;;;1999.90;999.90;;;30.80;97.60;;;;;;4995316;28;20066;-83
2023/08/11 09:42:59;;;;;;;1999.90;999.90;;;30.90;97.80;;;;;;4989871;28;20077;-83
2023/08/11 09:45:25;;;;;;;1999.90;999.90;;;31.00;97.20;;;;;;4988622;28;20046;-83
2023/08/11 09:47:51;;;;;;;1999.90;999.90;;;30.50;97.50;;;;;;4990168;28;20045;-83
2023/08/11 09:50:17;;;;;;;1999.90;999.90;;;30.00;97.40;;;;;;4989841;28;20570;-83
2023/08/11 09:52:44;;;;;;;1999.90;999.90;;;29.40;98.30;;;;;;4989457;28;20121;-83
2023/08/11 09:55:13;;;;;;;1999.90;999.90;;;29.20;98.80;;;;;;4988449;28;20065;-83
2023/08/11 09:57:43;;;;;;;1999.90;999.90;;;28.80;98.30;;;;;;4988154;28;20038;-83
2023/08/11 10:00:13;;;;;;;1999.90;999.90;;;28.60;98.90;;;;;;4991980;28;20125;-82
2023/08/11 10:02:49;;;;;;;1999.90;999.90;;;28.40;98.80;;;;;;4992805;28;20042;-83
2023/08/11 10:05:17;;;;;;;1999.90;999.90;;;28.20;99.00;;;;;;4990892;28;20141;-83
2023/08/11 10:07:46;;;;;;;1999.90;999.90;;;28.10;99.50;;;;;;4991488;28;20042;-83
2023/08/11 10:10:18;;;;;;;1999.90;999.90;;;28.00;99.00;;;;;;4978431;28;20039;-83
2023/08/11 10:13:06;;;;;;;1999.90;999.90;;;28.10;99.00;;;;;;4972442;28;20147;-83
2023/08/11 10:15:33;;;;;;;1999.90;999.90;;;28.10;99.50;;;;;;4973268;28;20329;-83
2023/08/11 10:18:04;;;;;;;1999.90;999.90;;;28.20;99.80;;;;;;4972088;28;20126;-83
2023/08/11 10:20:30;;;;;;;1999.90;999.90;;;28.20;99.00;;;;;;4971810;28;20051;-83
2023/08/11 10:22:57;;;;;;;1999.90;999.90;;;28.20;99.00;;;;;;4972710;28;20128;-83
2023/08/11 10:25:24;;;;;;;1999.90;999.90;;;28.10;98.70;;;;;;4989166;28;20045;-83
2023/08/11 10:27:51;;;;;;;1999.90;999.90;;;28.20;99.40;;;;;;4991180;28;20061;-83
2023/08/11 10:30:17;;;;;;;1999.90;999.90;;;28.10;98.80;;;;;;4992284;28;20516;-83
2023/08/11 10:32:43;;;;;;;1999.90;999.90;;;28.10;99.60;;;;;;4974666;28;20043;-82
2023/08/11 10:35:26;;;;;;;1999.90;999.90;;;28.20;99.40;;;;;;4991895;28;20046;-82
2023/08/11 10:38:03;;;;;;;;;;;28.30;99.30;;;;;;4991492;28;20278;-82
2023/08/11 10:40:38;;;;;;;1999.90;999.90;;;28.30;98.90;;;;;;4974938;28;20008;-82
2023/08/11 10:43:06;;;;;;;1999.90;999.90;;;28.60;99.90;;;;;;4970987;28;20054;-83
2023/08/11 10:45:34;;;;;;;1999.90;999.90;;;28.80;99.40;;;;;;4973034;28;20046;-83
2023/08/11 10:48:05;;;;;;;1999.90;999.90;;;28.80;98.90;;;;;;4973165;28;20038;-83
2023/08/11 10:50:31;;;;;;;1999.90;999.90;;;29.10;99.20;;;;;;4972635;28;20110;-83
2023/08/11 10:53:20;;;;;;;1999.90;999.90;;;29.20;97.80;;;;;;4980320;28;20164;-84
2023/08/11 10:56:02;;;;;;;1999.90;999.90;;;29.20;98.70;;;;;;4994460;28;20520;-83
2023/08/11 10:58:32;;;;;;;1999.90;999.90;;;29.30;97.90;;;;;;4970409;28;20509;-82
2023/08/11 11:00:58;;;;;;;1999.90;999.90;;;29.40;98.60;;;;;;4972112;28;20046;-83
2023/08/11 11:03:25;;;;;;;1999.90;999.90;;;29.60;98.50;;;;;;4973138;28;20047;-83
2023/08/11 11:05:51;;;;;;;1999.90;999.90;;;29.60;98.50;;;;;;4972303;28;20042;-83
2023/08/11 11:08:17;;;;;;;1999.90;999.90;;;29.70;97.80;;;;;;4955397;28;20084;-83
2023/08/11 11:10:43;;;;;;;1999.90;999.90;;;29.60;98.40;;;;;;4970620;28;20102;-82
2023/08/11 11:13:09;;;;;;;1999.90;999.90;;;29.60;98.20;;;;;;4973028;28;20545;-83
2023/08/11 11:15:35;;;;;;;1999.90;999.90;;;29.50;98.40;;;;;;4973085;28;20089;-83
2023/08/11 11:18:00;;;;;;;1999.90;999.90;;;29.40;98.10;;;;;;4971625;28;20037;-83
2023/08/11 11:20:27;;;;;;;1999.90;999.90;;;29.50;98.40;;;;;;4971812;28;20047;-84
2023/08/11 11:22:53;;;;;;;1999.90;999.90;;;29.60;98.00;;;;;;4973436;28;20055;-83
2023/08/11 11:25:20;;;;;;;1999.90;999.90;;;29.70;98.20;;;;;;4980220;28;20481;-84
2023/08/11 11:27:46;;;;;;;1999.90;999.90;;;29.60;98.00;;;;;;4982931;28;20130;-83
2023/08/11 11:30:13;;;;;;;1999.90;999.90;;;29.50;97.40;;;;;;4992084;28;20125;-83
2023/08/11 11:32:40;;;;;;;1999.90;999.90;;;29.40;97.60;;;;;;4990838;28;20465;-82
2023/08/11 11:35:06;;;;;;;1999.90;999.90;;;29.40;98.40;;;;;;4991671;28;20081;-83
2023/08/11 11:37:36;;;;;;;1999.90;999.90;;;29.30;97.50;;;;;;4991590;28;20108;-83
2023/08/11 11:40:06;;;;;;;1999.90;999.90;;;29.30;97.90;;;;;;4990728;28;20456;-83
2023/08/11 11:42:34;;;;;;;1999.90;999.90;;;29.40;98.60;;;;;;4981068;28;20101;-83
2023/08/11 11:45:00;;;;;;;1999.90;999.90;;;29.60;98.40;;;;;;4972190;28;20120;-83
2023/08/11 11:47:26;;;;;;;1999.90;999.90;;;29.60;98.70;;;;;;4970425;28;20104;-83
2023/08/11 11:49:59;;;;;;;1999.90;999.90;;;29.50;97.90;;;;;;4971453;28;20066;-83
2023/08/11 11:52:25;;;;;;;1999.90;999.90;;;29.50;98.10;;;;;;4971334;28;20039;-83
2023/08/11 11:54:55;;;;;;;1999.90;999.90;;;29.50;98.10;;;;;;4973683;28;20045;-82
2023/08/11 11:57:21;;;;;;;1999.90;999.90;;;29.50;98.10;;;;;;4990844;28;20034;-83
2023/08/11 11:59:49;;;;;;;1999.90;999.90;;;29.30;97.90;;;;;;4991396;28;20069;-83
2023/08/11 12:02:15;;;;;;;1999.90;999.90;;;29.30;98.00;;;;;;4990981;28;20480;-83
2023/08/11 12:04:42;;;;;;;1999.90;999.90;;;29.10;98.10;;;;;;4973912;28;20362;-83
2023/08/11 12:07:09;;;;;;;1999.90;999.90;;;29.20;98.10;;;;;;4991091;28;20079;-83
2023/08/11 12:09:51;;;;;;;1999.90;999.90;;;29.30;98.40;;;;;;4973924;28;20105;-83
2023/08/11 12:12:17;;;;;;;1999.90;999.90;;;29.60;98.40;;;;;;4999564;28;20040;-83